Time;durP1;ratioP1;P1;durP2;ratioP2;P2;SDS_P1;SDS_P2;PMS_P1;PMS_P2;Temp;Humidity;BMP_temperature;BMP_pressure;BME280_temperature;BME280_humidity;BME280_pressure;Samples;Min_cycle;Max_cycle;Signal;HPM_P1;HPM_P2
2022/01/31 00:01:35;;;;;;;79.20;5.45;;;;;;;;;;4983831;28;20038;-36
2022/01/31 00:04:02;;;;;;;146.15;10.98;;;;;;;;;;4987320;28;20515;-35
2022/01/31 00:06:29;;;;;;;105.28;8.25;;;;;;;;;;4986190;28;20144;-34
2022/01/31 00:08:57;;;;;;;155.90;11.05;;;;;;;;;;4991142;28;20038;-33
2022/01/31 00:11:24;;;;;;;90.45;6.65;;;;;;;;;;4991675;28;20057;-33
2022/01/31 00:14:00;;;;;;;71.32;5.97;;;;;;;;;;4995119;28;20022;-35
2022/01/31 00:16:32;;;;;;;39.50;3.72;;;;;;;;;;4988047;28;20516;-33
2022/01/31 00:19:00;;;;;;;38.15;3.75;;;;;;;;;;4972176;28;20527;-33
2022/01/31 00:21:28;;;;;;;34.30;3.00;;;;;;;;;;4978129;28;20438;-34
2022/01/31 00:23:55;;;;;;;70.05;5.07;;;;;;;;;;4981735;28;20385;-34
2022/01/31 00:26:22;;;;;;;39.13;3.58;;;;;;;;;;4982967;28;20022;-33
2022/01/31 00:28:49;;;;;;;31.88;3.50;;;;;;;;;;4981991;28;20498;-35
2022/01/31 00:31:16;;;;;;;37.70;3.13;;;;;;;;;;4983200;28;20026;-40
2022/01/31 00:33:43;;;;;;;76.25;5.95;;;;;;;;;;4983288;28;20030;-33
2022/01/31 00:36:10;;;;;;;97.70;6.95;;;;;;;;;;4983356;28;20117;-34
2022/01/31 00:38:37;;;;;;;101.80;6.72;;;;;;;;;;4982846;28;20409;-33
2022/01/31 00:41:04;;;;;;;86.03;6.70;;;;;;;;;;4982181;28;20029;-33
2022/01/31 00:43:35;;;;;;;82.80;6.53;;;;;;;;;;4980737;28;20030;-33
2022/01/31 00:46:09;;;;;;;116.75;9.45;;;;;;;;;;4974050;28;20507;-33
2022/01/31 00:48:42;;;;;;;109.15;8.32;;;;;;;;;;4973686;28;20362;-33
2022/01/31 00:51:10;;;;;;;128.00;9.13;;;;;;;;;;4972490;28;20469;-35
2022/01/31 00:53:37;;;;;;;95.22;8.98;;;;;;;;;;4973890;28;20038;-34
2022/01/31 00:56:04;;;;;;;132.73;9.95;;;;;;;;;;4975482;28;20066;-34
2022/01/31 00:58:32;;;;;;;104.50;8.02;;;;;;;;;;4976352;28;20172;-33
2022/01/31 01:01:00;;;;;;;105.38;9.30;;;;;;;;;;4990086;28;20937;-33
2022/01/31 01:03:27;;;;;;;89.05;7.95;;;;;;;;;;4991278;28;20038;-33
2022/01/31 01:05:54;;;;;;;83.07;7.80;;;;;;;;;;4991493;28;20030;-33
2022/01/31 01:08:21;;;;;;;88.22;7.50;;;;;;;;;;4992191;28;20400;-33
2022/01/31 01:10:48;;;;;;;90.78;7.68;;;;;;;;;;4991525;28;20030;-33
2022/01/31 01:13:15;;;;;;;70.60;7.40;;;;;;;;;;4991584;28;20030;-34
2022/01/31 01:15:42;;;;;;;72.30;8.38;;;;;;;;;;4991283;28;20133;-33
2022/01/31 01:18:09;;;;;;;96.18;8.30;;;;;;;;;;4985835;28;20547;-33
2022/01/31 01:20:37;;;;;;;93.47;9.10;;;;;;;;;;4981855;28;20393;-34
2022/01/31 01:23:04;;;;;;;89.43;9.18;;;;;;;;;;4979875;28;20096;-33
2022/01/31 01:25:33;;;;;;;82.90;7.07;;;;;;;;;;4977572;28;20031;-34
2022/01/31 01:28:00;;;;;;;74.63;6.65;;;;;;;;;;4973317;28;20524;-33
2022/01/31 01:30:27;;;;;;;75.60;6.85;;;;;;;;;;4975336;28;20054;-33
2022/01/31 01:35:31;;;;;;;95.25;7.88;;;;;;;;;;4973217;28;20050;-33
2022/01/31 01:38:04;;;;;;;72.22;6.28;;;;;;;;;;4972465;28;20034;-34
2022/01/31 01:40:31;;;;;;;65.20;6.15;;;;;;;;;;4972741;28;20818;-34
2022/01/31 01:42:58;;;;;;;60.40;6.13;;;;;;;;;;4972309;28;20105;-36
2022/01/31 01:45:25;;;;;;;61.08;6.60;;;;;;;;;;4972578;28;20027;-34
2022/01/31 01:47:52;;;;;;;59.03;6.25;;;;;;;;;;4971421;28;20488;-34
2022/01/31 01:50:19;;;;;;;49.65;5.85;;;;;;;;;;4972650;28;20033;-34
2022/01/31 01:52:46;;;;;;;52.72;5.65;;;;;;;;;;4972015;28;20057;-34
2022/01/31 01:55:14;;;;;;;52.72;5.45;;;;;;;;;;4987585;28;20034;-34
2022/01/31 01:57:41;;;;;;;55.75;5.70;;;;;;;;;;4990954;28;20030;-36
2022/01/31 02:00:15;;;;;;;67.40;5.72;;;;;;;;;;4991295;28;20042;-34
2022/01/31 02:02:43;;;;;;;57.97;5.07;;;;;;;;;;4990911;28;20050;-34
2022/01/31 02:05:11;;;;;;;52.92;5.70;;;;;;;;;;4981567;28;20089;-34
2022/01/31 02:07:38;;;;;;;62.60;5.20;;;;;;;;;;4976527;28;20027;-34
2022/01/31 02:10:06;;;;;;;63.10;5.63;;;;;;;;;;4987547;28;20041;-34
2022/01/31 02:12:47;;;;;;;52.17;5.00;;;;;;;;;;4987706;28;20030;-34
2022/01/31 02:15:15;;;;;;;45.85;4.75;;;;;;;;;;4988260;28;20503;-34
2022/01/31 02:17:43;;;;;;;43.35;4.53;;;;;;;;;;4974053;28;20039;-34
2022/01/31 02:20:10;;;;;;;54.15;4.70;;;;;;;;;;4973351;28;20059;-34
2022/01/31 02:22:38;;;;;;;46.72;4.97;;;;;;;;;;4977124;28;20098;-34
2022/01/31 02:25:05;;;;;;;50.53;5.10;;;;;;;;;;4977568;28;20039;-34
2022/01/31 02:27:34;;;;;;;42.00;4.25;;;;;;;;;;4972085;28;20082;-34
2022/01/31 02:30:01;;;;;;;47.15;4.65;;;;;;;;;;4978667;28;20030;-34
2022/01/31 02:32:28;;;;;;;48.20;4.55;;;;;;;;;;4989406;28;20023;-34
2022/01/31 02:34:55;;;;;;;35.40;3.83;;;;;;;;;;4984381;28;20117;-35
2022/01/31 02:37:22;;;;;;;59.72;5.45;;;;;;;;;;4994875;28;20034;-34
2022/01/31 02:39:50;;;;;;;32.30;4.15;;;;;;;;;;4995045;28;20027;-34
2022/01/31 02:42:17;;;;;;;37.65;4.40;;;;;;;;;;4996186;28;20072;-34
2022/01/31 02:44:45;;;;;;;39.83;3.83;;;;;;;;;;4995414;28;20029;-35
2022/01/31 02:47:20;;;;;;;34.70;4.10;;;;;;;;;;4983493;28;20405;-34
2022/01/31 02:50:07;;;;;;;24.70;3.38;;;;;;;;;;4975538;28;20043;-34
2022/01/31 02:52:36;;;;;;;35.15;4.25;;;;;;;;;;4976710;28;20147;-34
2022/01/31 02:55:07;;;;;;;39.15;3.70;;;;;;;;;;4975193;28;20049;-34
2022/01/31 02:57:34;;;;;;;32.85;3.30;;;;;;;;;;4981993;28;20043;-34
2022/01/31 03:00:01;;;;;;;37.22;4.35;;;;;;;;;;4988886;28;20030;-35
2022/01/31 03:02:28;;;;;;;43.30;3.75;;;;;;;;;;4979848;28;20109;-34
2022/01/31 03:04:55;;;;;;;27.40;3.47;;;;;;;;;;4993155;28;20037;-34
2022/01/31 03:07:22;;;;;;;28.35;3.63;;;;;;;;;;4994504;28;20026;-35
2022/01/31 03:09:49;;;;;;;39.63;3.55;;;;;;;;;;4990304;28;20174;-34
2022/01/31 03:12:16;;;;;;;26.65;3.53;;;;;;;;;;4978347;28;20057;-34
2022/01/31 03:14:43;;;;;;;26.80;2.80;;;;;;;;;;4975476;28;20045;-34
2022/01/31 03:17:11;;;;;;;20.73;3.15;;;;;;;;;;4974104;28;20397;-34
2022/01/31 03:19:40;;;;;;;30.42;3.15;;;;;;;;;;4974372;28;20051;-34
2022/01/31 03:22:07;;;;;;;34.50;3.63;;;;;;;;;;4977845;28;20125;-34
2022/01/31 03:24:35;;;;;;;24.67;2.85;;;;;;;;;;4982732;28;20379;-33
2022/01/31 03:27:02;;;;;;;35.00;3.92;;;;;;;;;;4989786;28;20035;-35
2022/01/31 03:29:29;;;;;;;21.73;2.85;;;;;;;;;;4982783;28;20393;-34
2022/01/31 03:31:56;;;;;;;30.80;3.63;;;;;;;;;;4994332;28;20031;-33
2022/01/31 03:34:25;;;;;;;31.58;3.63;;;;;;;;;;4994090;28;20026;-34
2022/01/31 03:36:53;;;;;;;39.22;5.00;;;;;;;;;;4993658;28;20051;-34
2022/01/31 03:39:20;;;;;;;38.30;4.15;;;;;;;;;;4993120;28;20461;-33
2022/01/31 03:41:47;;;;;;;30.05;3.60;;;;;;;;;;4993606;28;20050;-33
2022/01/31 03:44:14;;;;;;;34.30;3.40;;;;;;;;;;4994791;28;20459;-33
2022/01/31 03:46:41;;;;;;;45.63;3.63;;;;;;;;;;4992613;28;20396;-34
2022/01/31 03:49:08;;;;;;;43.13;4.40;;;;;;;;;;4993158;28;20030;-33
2022/01/31 03:51:35;;;;;;;41.75;4.60;;;;;;;;;;4994004;28;20019;-34
2022/01/31 03:54:03;;;;;;;39.08;4.35;;;;;;;;;;4991258;28;20081;-34
2022/01/31 03:56:30;;;;;;;39.92;4.07;;;;;;;;;;4994076;28;20400;-33
2022/01/31 03:58:57;;;;;;;36.13;3.58;;;;;;;;;;4994676;28;20030;-34
2022/01/31 04:05:06;;;;;;;29.40;4.38;;;;;;;;;;4976803;28;20081;-34
2022/01/31 04:10:49;;;;;;;32.33;4.25;;;;;;;;;;4972013;28;20069;-34
2022/01/31 04:13:18;;;;;;;27.05;3.83;;;;;;;;;;4975790;28;20034;-33
2022/01/31 04:15:45;;;;;;;31.85;3.97;;;;;;;;;;4974439;28;20773;-33
2022/01/31 04:18:12;;;;;;;36.05;4.43;;;;;;;;;;4975014;28;20031;-33
2022/01/31 04:20:39;;;;;;;25.23;3.83;;;;;;;;;;4973296;28;20101;-33
2022/01/31 04:23:13;;;;;;;30.80;3.33;;;;;;;;;;4973964;28;20089;-33
2022/01/31 04:25:54;;;;;;;28.70;3.50;;;;;;;;;;4973423;28;20047;-33
2022/01/31 04:28:26;;;;;;;29.55;4.45;;;;;;;;;;4973874;28;20035;-33
2022/01/31 04:31:13;;;;;;;25.55;2.78;;;;;;;;;;4973785;28;20030;-33
2022/01/31 04:33:40;;;;;;;30.05;3.53;;;;;;;;;;4973558;28;20038;-33
2022/01/31 04:36:07;;;;;;;21.88;3.25;;;;;;;;;;4973570;28;20038;-33
2022/01/31 04:38:34;;;;;;;21.05;3.05;;;;;;;;;;4973858;28;20045;-33
2022/01/31 04:41:02;;;;;;;24.50;2.95;;;;;;;;;;4973798;28;20539;-33
2022/01/31 04:43:29;;;;;;;23.75;2.88;;;;;;;;;;4973946;28;20038;-33
2022/01/31 04:46:00;;;;;;;26.58;3.30;;;;;;;;;;4973497;28;20027;-33
2022/01/31 04:48:27;;;;;;;13.48;2.67;;;;;;;;;;4973616;28;20042;-33
2022/01/31 04:50:54;;;;;;;21.77;2.70;;;;;;;;;;4973394;28;20111;-33
2022/01/31 04:53:21;;;;;;;19.33;2.55;;;;;;;;;;4973686;28;20026;-33
2022/01/31 04:55:48;;;;;;;18.05;2.80;;;;;;;;;;4973275;28;20039;-33
2022/01/31 04:58:15;;;;;;;17.77;2.47;;;;;;;;;;4972787;28;20081;-33
2022/01/31 05:00:42;;;;;;;29.92;2.80;;;;;;;;;;4973378;28;20512;-33
2022/01/31 05:03:15;;;;;;;23.85;2.55;;;;;;;;;;4973296;28;20074;-33
2022/01/31 05:05:42;;;;;;;11.50;1.75;;;;;;;;;;4972786;28;20043;-33
2022/01/31 05:08:10;;;;;;;21.02;2.78;;;;;;;;;;4973347;28;20513;-33
2022/01/31 05:10:43;;;;;;;15.70;2.78;;;;;;;;;;4973453;28;20043;-33
2022/01/31 05:13:11;;;;;;;13.45;2.10;;;;;;;;;;4972793;28;20443;-33
2022/01/31 05:15:38;;;;;;;19.95;2.20;;;;;;;;;;4973028;28;20043;-33
2022/01/31 05:18:05;;;;;;;15.07;2.10;;;;;;;;;;4973337;28;20106;-33
2022/01/31 05:20:32;;;;;;;14.52;2.30;;;;;;;;;;4972541;28;20055;-33
2022/01/31 05:22:59;;;;;;;12.40;2.22;;;;;;;;;;4972910;28;20437;-33
2022/01/31 05:25:27;;;;;;;23.67;2.20;;;;;;;;;;4973227;28;20415;-35
2022/01/31 05:27:53;;;;;;;17.85;2.63;;;;;;;;;;4972542;28;20038;-33
2022/01/31 05:30:22;;;;;;;16.83;1.90;;;;;;;;;;4972842;28;20035;-33
2022/01/31 05:32:49;;;;;;;14.10;2.85;;;;;;;;;;4973086;28;20042;-33
2022/01/31 05:35:16;;;;;;;17.23;1.90;;;;;;;;;;4972587;28;20813;-33
2022/01/31 05:37:43;;;;;;;21.50;2.05;;;;;;;;;;4972639;28;20038;-33
2022/01/31 05:40:10;;;;;;;15.50;1.95;;;;;;;;;;4972814;28;20034;-33
2022/01/31 05:42:37;;;;;;;22.20;2.20;;;;;;;;;;4972362;28;20034;-33
2022/01/31 05:45:06;;;;;;;19.55;2.13;;;;;;;;;;4972625;28;20033;-33
2022/01/31 05:47:34;;;;;;;13.20;2.38;;;;;;;;;;4972766;28;20125;-34
2022/01/31 05:50:02;;;;;;;14.68;2.10;;;;;;;;;;4972253;28;20493;-33
2022/01/31 05:52:29;;;;;;;25.67;2.35;;;;;;;;;;4972845;28;20038;-33
2022/01/31 05:54:56;;;;;;;17.60;2.55;;;;;;;;;;4972665;28;20496;-33
2022/01/31 05:57:23;;;;;;;14.82;2.10;;;;;;;;;;4971984;28;20109;-33
2022/01/31 05:59:51;;;;;;;12.52;1.58;;;;;;;;;;4972246;28;20030;-33
2022/01/31 06:02:18;;;;;;;14.32;2.03;;;;;;;;;;4972483;28;20034;-33
2022/01/31 06:04:45;;;;;;;17.30;2.40;;;;;;;;;;4972128;28;20019;-34
2022/01/31 06:07:12;;;;;;;28.23;2.90;;;;;;;;;;4972195;28;20033;-33
2022/01/31 06:09:39;;;;;;;18.25;2.78;;;;;;;;;;4971920;28;20023;-33
2022/01/31 06:12:06;;;;;;;24.05;2.97;;;;;;;;;;4971841;28;20039;-33
2022/01/31 06:14:34;;;;;;;19.88;2.80;;;;;;;;;;4972238;28;20042;-33
2022/01/31 06:17:01;;;;;;;25.83;2.92;;;;;;;;;;4972145;28;20494;-33
2022/01/31 06:19:29;;;;;;;30.25;3.28;;;;;;;;;;4971496;28;20049;-33
2022/01/31 06:21:56;;;;;;;20.90;2.72;;;;;;;;;;4972016;28;20537;-35
2022/01/31 06:24:23;;;;;;;20.75;2.53;;;;;;;;;;4972208;28;20397;-33
2022/01/31 06:26:51;;;;;;;27.02;2.90;;;;;;;;;;4971691;28;20038;-33
2022/01/31 06:29:19;;;;;;;15.43;2.35;;;;;;;;;;4971784;28;20038;-33
2022/01/31 06:31:46;;;;;;;19.27;3.15;;;;;;;;;;4972321;28;20101;-33
2022/01/31 06:34:14;;;;;;;21.33;2.50;;;;;;;;;;4971958;28;20058;-33
2022/01/31 06:36:41;;;;;;;26.60;2.97;;;;;;;;;;4971579;28;20435;-33
2022/01/31 06:39:08;;;;;;;24.33;2.90;;;;;;;;;;4972263;28;20022;-33
2022/01/31 06:41:35;;;;;;;20.25;2.67;;;;;;;;;;4971847;28;20027;-33
2022/01/31 06:44:02;;;;;;;17.00;2.53;;;;;;;;;;4971704;28;20030;-33
2022/01/31 06:46:29;;;;;;;16.60;2.38;;;;;;;;;;4972163;28;20030;-33
2022/01/31 06:48:56;;;;;;;19.10;3.08;;;;;;;;;;4972000;28;20022;-33
2022/01/31 06:51:23;;;;;;;23.38;2.25;;;;;;;;;;4971714;28;20030;-33
2022/01/31 06:53:50;;;;;;;14.85;2.17;;;;;;;;;;4971875;28;20477;-33
2022/01/31 06:56:18;;;;;;;19.70;2.72;;;;;;;;;;4971596;28;20042;-33
2022/01/31 06:58:45;;;;;;;20.42;2.47;;;;;;;;;;4971574;28;20357;-33
2022/01/31 07:01:12;;;;;;;21.73;2.55;;;;;;;;;;4971859;28;20042;-33
2022/01/31 07:03:40;;;;;;;13.18;2.15;;;;;;;;;;4971912;28;20031;-33
2022/01/31 07:06:07;;;;;;;19.25;2.50;;;;;;;;;;4971364;28;20055;-33
2022/01/31 07:08:34;;;;;;;22.80;2.20;;;;;;;;;;4971664;28;20038;-33
2022/01/31 07:11:01;;;;;;;17.70;2.03;;;;;;;;;;4971728;28;20038;-33
2022/01/31 07:13:37;;;;;;;15.05;2.22;;;;;;;;;;4971571;28;20532;-33
2022/01/31 07:16:05;;;;;;;20.52;2.30;;;;;;;;;;4971579;28;20049;-33
2022/01/31 07:18:34;;;;;;;18.15;2.25;;;;;;;;;;4971384;28;20019;-33
2022/01/31 07:21:01;;;;;;;19.88;2.70;;;;;;;;;;4972528;28;20035;-33
2022/01/31 07:23:49;;;;;;;29.38;2.65;;;;;;;;;;4975170;28;20031;-33
2022/01/31 07:26:15;;;;;;;30.05;2.83;;;;;;;;;;4974728;28;20039;-33
2022/01/31 07:28:43;;;;;;;25.63;2.72;;;;;;;;;;4975265;28;20041;-33
2022/01/31 07:31:13;;;;;;;17.35;2.15;;;;;;;;;;4975318;28;20113;-33
2022/01/31 07:33:42;;;;;;;14.80;1.80;;;;;;;;;;4974626;28;20035;-33
2022/01/31 07:36:10;;;;;;;18.45;2.10;;;;;;;;;;4974803;28;20046;-33
2022/01/31 07:38:37;;;;;;;19.50;1.88;;;;;;;;;;4975164;28;20050;-33
2022/01/31 07:41:04;;;;;;;14.77;2.25;;;;;;;;;;4974838;28;20359;-33
2022/01/31 07:43:33;;;;;;;11.98;2.35;;;;;;;;;;4974878;28;20102;-33
2022/01/31 07:46:00;;;;;;;14.98;2.53;;;;;;;;;;4974688;28;20043;-33
2022/01/31 07:48:29;;;;;;;15.02;2.08;;;;;;;;;;4974649;28;20073;-33
2022/01/31 07:50:56;;;;;;;13.50;2.03;;;;;;;;;;4974562;28;20113;-33
2022/01/31 07:53:23;;;;;;;16.83;2.10;;;;;;;;;;4975078;28;20035;-33
2022/01/31 07:55:51;;;;;;;10.40;1.92;;;;;;;;;;4974153;28;20041;-33
2022/01/31 07:58:20;;;;;;;15.43;1.90;;;;;;;;;;4974399;28;20038;-33
2022/01/31 08:00:47;;;;;;;15.15;2.00;;;;;;;;;;4974575;28;20046;-33
2022/01/31 08:03:14;;;;;;;14.02;2.35;;;;;;;;;;4974406;28;20102;-33
2022/01/31 08:05:42;;;;;;;24.08;2.55;;;;;;;;;;4956662;28;20031;-33
2022/01/31 08:08:09;;;;;;;12.02;1.98;;;;;;;;;;4974633;28;20081;-33
2022/01/31 08:10:37;;;;;;;13.43;2.15;;;;;;;;;;4974060;28;20030;-33
2022/01/31 08:13:07;;;;;;;14.48;2.22;;;;;;;;;;4974254;28;20494;-33
2022/01/31 08:15:44;;;;;;;8.10;1.38;;;;;;;;;;4974369;28;20043;-33
2022/01/31 08:18:12;;;;;;;13.70;1.70;;;;;;;;;;4973950;28;20509;-33
2022/01/31 08:20:39;;;;;;;12.25;2.13;;;;;;;;;;4973585;28;20066;-33
2022/01/31 08:23:07;;;;;;;15.38;1.90;;;;;;;;;;4974338;28;20023;-33
2022/01/31 08:25:37;;;;;;;14.80;1.80;;;;;;;;;;4973815;28;20417;-33
2022/01/31 08:28:10;;;;;;;15.02;2.05;;;;;;;;;;4973852;28;20051;-33
2022/01/31 08:30:47;;;;;;;15.25;2.00;;;;;;;;;;4974070;28;20109;-33
2022/01/31 08:33:32;;;;;;;8.80;1.70;;;;;;;;;;4973318;28;20027;-33
2022/01/31 08:35:59;;;;;;;14.90;2.03;;;;;;;;;;4973381;28;20123;-33
2022/01/31 08:38:26;;;;;;;12.35;2.17;;;;;;;;;;4973946;28;20037;-33
2022/01/31 08:40:53;;;;;;;14.98;2.03;;;;;;;;;;4973972;28;20027;-33
2022/01/31 08:43:20;;;;;;;13.85;1.80;;;;;;;;;;4973373;28;20057;-33
2022/01/31 08:45:49;;;;;;;25.63;2.50;;;;;;;;;;4973624;28;20035;-33
2022/01/31 08:48:16;;;;;;;18.83;1.80;;;;;;;;;;4973819;28;20063;-33
2022/01/31 08:50:44;;;;;;;16.15;2.05;;;;;;;;;;4955898;28;20038;-33
2022/01/31 08:53:11;;;;;;;19.88;2.70;;;;;;;;;;4973436;28;20031;-33
2022/01/31 08:55:38;;;;;;;13.48;1.83;;;;;;;;;;4973649;28;20042;-33
2022/01/31 08:58:06;;;;;;;18.35;2.40;;;;;;;;;;4973223;28;20489;-33
2022/01/31 09:00:35;;;;;;;18.50;1.88;;;;;;;;;;4973118;28;20157;-33
2022/01/31 09:03:19;;;;;;;25.17;2.25;;;;;;;;;;4973438;28;20042;-33
2022/01/31 09:05:46;;;;;;;23.45;2.33;;;;;;;;;;4973054;28;20035;-33
2022/01/31 09:08:13;;;;;;;15.38;2.10;;;;;;;;;;4973171;28;20516;-33
2022/01/31 09:10:40;;;;;;;19.38;2.20;;;;;;;;;;4973298;28;20388;-33
2022/01/31 09:13:10;;;;;;;69.38;4.47;;;;;;;;;;4973139;28;20039;-33
2022/01/31 09:15:37;;;;;;;42.10;4.07;;;;;;;;;;4972474;28;20170;-33
2022/01/31 09:18:04;;;;;;;66.78;4.63;;;;;;;;;;4973349;28;20031;-33
2022/01/31 09:20:31;;;;;;;31.52;3.42;;;;;;;;;;4972823;28;20047;-33
2022/01/31 09:22:58;;;;;;;29.48;3.15;;;;;;;;;;4972651;28;20031;-33
2022/01/31 09:25:28;;;;;;;29.27;3.40;;;;;;;;;;4973072;28;20410;-33
2022/01/31 09:27:55;;;;;;;28.40;2.97;;;;;;;;;;4972945;28;20023;-33
2022/01/31 09:30:22;;;;;;;17.80;2.63;;;;;;;;;;4972645;28;20049;-33
2022/01/31 09:32:49;;;;;;;19.98;2.75;;;;;;;;;;4972726;28;20551;-33
2022/01/31 09:35:16;;;;;;;67.88;4.88;;;;;;;;;;4972553;28;20113;-33
2022/01/31 09:37:43;;;;;;;37.28;3.83;;;;;;;;;;4972474;28;20065;-33
2022/01/31 09:40:16;;;;;;;45.17;3.75;;;;;;;;;;4972872;28;20027;-33
2022/01/31 09:43:04;;;;;;;31.30;3.80;;;;;;;;;;4972398;28;20086;-33
2022/01/31 09:45:57;;;;;;;23.63;2.88;;;;;;;;;;4972415;28;20035;-33
2022/01/31 09:48:41;;;;;;;33.92;3.63;;;;;;;;;;4971979;28;20038;-33
2022/01/31 09:51:10;;;;;;;44.72;3.40;;;;;;;;;;4972527;28;20039;-33
2022/01/31 09:53:39;;;;;;;27.83;3.30;;;;;;;;;;4972217;28;20046;-33
2022/01/31 09:56:10;;;;;;;21.55;2.90;;;;;;;;;;4972414;28;20054;-33
2022/01/31 09:58:41;;;;;;;25.20;2.80;;;;;;;;;;4972340;28;20042;-33
2022/01/31 10:01:13;;;;;;;17.20;2.78;;;;;;;;;;4972108;28;20106;-33
2022/01/31 10:03:55;;;;;;;23.20;2.80;;;;;;;;;;4972266;28;20023;-33
2022/01/31 10:06:27;;;;;;;28.90;3.60;;;;;;;;;;4972460;28;20041;-33
2022/01/31 10:09:06;;;;;;;26.63;2.92;;;;;;;;;;4972111;28;20106;-33
2022/01/31 10:11:56;;;;;;;21.90;2.58;;;;;;;;;;4971908;28;20034;-33
2022/01/31 10:17:12;;;;;;;14.73;2.60;;;;;;;;;;4971924;28;20093;-33
2022/01/31 10:19:48;;;;;;;18.55;2.83;;;;;;;;;;4971699;28;20050;-33
2022/01/31 10:22:16;;;;;;;26.80;2.42;;;;;;;;;;4971989;28;20023;-33
2022/01/31 10:24:46;;;;;;;19.40;2.95;;;;;;;;;;4972283;28;20114;-33
2022/01/31 10:27:13;;;;;;;25.50;2.80;;;;;;;;;;4971685;28;20429;-33
2022/01/31 10:29:41;;;;;;;21.85;2.38;;;;;;;;;;4971749;28;20090;-33
2022/01/31 10:32:13;;;;;;;27.00;3.17;;;;;;;;;;4972149;28;20375;-33
2022/01/31 10:34:47;;;;;;;25.50;3.15;;;;;;;;;;4971650;28;20035;-33
2022/01/31 10:37:18;;;;;;;46.08;4.47;;;;;;;;;;4971540;28;20034;-33
2022/01/31 10:53:07;;;;;;;22.35;2.95;;;;;;;;;;4971747;28;20023;-33
2022/01/31 10:55:34;;;;;;;19.08;2.33;;;;;;;;;;4971244;28;20138;-33
2022/01/31 10:58:02;;;;;;;19.75;2.63;;;;;;;;;;4975850;28;20038;-33
2022/01/31 11:00:40;;;;;;;26.77;2.53;;;;;;;;;;4975585;28;20026;-33
2022/01/31 11:03:28;;;;;;;20.83;2.75;;;;;;;;;;4975103;28;20049;-33
2022/01/31 11:05:55;;;;;;;26.38;3.20;;;;;;;;;;4975429;28;20046;-33
2022/01/31 11:08:22;;;;;;;24.52;3.17;;;;;;;;;;4975905;28;20023;-33
2022/01/31 11:10:50;;;;;;;27.88;2.35;;;;;;;;;;4975178;28;20026;-33
2022/01/31 11:13:17;;;;;;;26.17;3.10;;;;;;;;;;4975653;28;20456;-33
2022/01/31 11:15:44;;;;;;;22.48;3.30;;;;;;;;;;4975461;28;20031;-33
2022/01/31 11:18:11;;;;;;;27.67;3.33;;;;;;;;;;4975033;28;20026;-34
2022/01/31 11:20:44;;;;;;;28.42;2.92;;;;;;;;;;4974912;28;20050;-33
2022/01/31 11:23:12;;;;;;;109.70;7.57;;;;;;;;;;4975305;28;20634;-33
2022/01/31 11:25:40;;;;;;;23.75;3.40;;;;;;;;;;4974720;28;20046;-33
2022/01/31 11:28:11;;;;;;;25.67;2.85;;;;;;;;;;4974721;28;20039;-33
2022/01/31 11:30:38;;;;;;;24.30;2.55;;;;;;;;;;4975060;28;20023;-33
2022/01/31 11:33:05;;;;;;;23.55;3.00;;;;;;;;;;4974859;28;20030;-33
2022/01/31 11:35:32;;;;;;;22.08;2.78;;;;;;;;;;4974662;28;20023;-33
2022/01/31 11:37:59;;;;;;;25.90;2.67;;;;;;;;;;4974953;28;20022;-33
2022/01/31 11:40:26;;;;;;;19.20;2.45;;;;;;;;;;4974736;28;20744;-33
2022/01/31 11:42:54;;;;;;;28.33;3.55;;;;;;;;;;4974699;28;20485;-33
2022/01/31 11:45:21;;;;;;;38.05;3.15;;;;;;;;;;4974629;28;20035;-33
2022/01/31 11:47:49;;;;;;;18.55;2.65;;;;;;;;;;4974484;28;20030;-33
2022/01/31 11:50:17;;;;;;;15.30;2.45;;;;;;;;;;4974778;28;20566;-33
2022/01/31 11:52:49;;;;;;;14.95;2.15;;;;;;;;;;4974799;28;20027;-33
2022/01/31 11:55:18;;;;;;;14.45;2.65;;;;;;;;;;4974017;28;20031;-33
2022/01/31 11:57:49;;;;;;;21.40;2.67;;;;;;;;;;4974713;28;20089;-33
2022/01/31 12:00:17;;;;;;;24.75;2.65;;;;;;;;;;4974642;28;20050;-33
2022/01/31 12:02:48;;;;;;;17.17;1.80;;;;;;;;;;4956758;28;20033;-33
2022/01/31 12:05:20;;;;;;;20.88;2.45;;;;;;;;;;4974502;28;20054;-33
2022/01/31 12:07:48;;;;;;;18.00;2.33;;;;;;;;;;4973271;28;20031;-33
2022/01/31 12:10:18;;;;;;;19.65;2.25;;;;;;;;;;4974182;28;20393;-33
2022/01/31 12:13:00;;;;;;;15.85;2.60;;;;;;;;;;4974034;28;20026;-33
2022/01/31 12:18:59;;;;;;;21.60;2.72;;;;;;;;;;4973960;28;20061;-33
2022/01/31 12:24:05;;;;;;;15.88;2.22;;;;;;;;;;4974211;28;20057;-33
2022/01/31 12:26:38;;;;;;;16.05;2.20;;;;;;;;;;4974424;28;20105;-33
2022/01/31 12:29:10;;;;;;;18.85;2.30;;;;;;;;;;4973960;28;20477;-33
2022/01/31 12:31:45;;;;;;;18.17;2.00;;;;;;;;;;4973611;28;20069;-33
2022/01/31 12:34:12;;;;;;;15.20;2.30;;;;;;;;;;4974284;28;20481;-33
2022/01/31 12:36:42;;;;;;;12.50;2.08;;;;;;;;;;4973890;28;20118;-33
2022/01/31 12:39:27;;;;;;;16.85;1.98;;;;;;;;;;4973460;28;20023;-33
2022/01/31 12:42:00;;;;;;;23.17;2.95;;;;;;;;;;4973725;28;20027;-33
2022/01/31 12:44:34;;;;;;;21.38;2.58;;;;;;;;;;4973967;28;20050;-33
2022/01/31 12:47:20;;;;;;;23.40;2.67;;;;;;;;;;4973064;28;20031;-33
2022/01/31 12:50:06;;;;;;;21.30;2.67;;;;;;;;;;4975439;28;20015;-33
2022/01/31 12:52:35;;;;;;;15.02;2.42;;;;;;;;;;4973500;28;20033;-33
2022/01/31 12:55:22;;;;;;;16.77;1.90;;;;;;;;;;4973695;28;20030;-34
2022/01/31 12:57:49;;;;;;;23.50;2.47;;;;;;;;;;4973142;28;20511;-34
2022/01/31 13:00:17;;;;;;;20.45;2.28;;;;;;;;;;4973419;28;20027;-34
2022/01/31 13:02:50;;;;;;;23.67;3.08;;;;;;;;;;4973606;28;20022;-34
2022/01/31 13:05:31;;;;;;;22.58;2.65;;;;;;;;;;4972967;28;20027;-33
2022/01/31 13:07:58;;;;;;;20.48;2.17;;;;;;;;;;4973109;28;20155;-34
2022/01/31 13:10:25;;;;;;;14.40;2.53;;;;;;;;;;4973652;28;20018;-33
2022/01/31 13:13:01;;;;;;;19.10;2.00;;;;;;;;;;4973089;28;20050;-33
2022/01/31 13:15:28;;;;;;;18.35;2.28;;;;;;;;;;4972577;28;20023;-33
2022/01/31 13:18:05;;;;;;;13.45;1.80;;;;;;;;;;4972569;28;20037;-34
2022/01/31 13:20:32;;;;;;;14.90;2.22;;;;;;;;;;4972378;28;20050;-33
2022/01/31 13:23:00;;;;;;;14.15;2.22;;;;;;;;;;4970431;28;20030;-35
2022/01/31 13:25:28;;;;;;;15.70;1.85;;;;;;;;;;4971541;28;20393;-33
2022/01/31 13:27:56;;;;;;;16.48;2.05;;;;;;;;;;4970605;28;20050;-33
2022/01/31 13:30:23;;;;;;;28.33;2.30;;;;;;;;;;4970977;28;20517;-33
2022/01/31 13:32:50;;;;;;;15.23;2.17;;;;;;;;;;4971211;28;20019;-34
2022/01/31 13:35:21;;;;;;;10.88;2.00;;;;;;;;;;4970573;28;20034;-37
2022/01/31 13:38:09;;;;;;;16.83;1.98;;;;;;;;;;4969018;28;20037;-35
2022/01/31 13:40:42;;;;;;;12.32;1.80;;;;;;;;;;4962517;28;20023;-32
2022/01/31 13:43:12;;;;;;;9.90;2.20;;;;;;;;;;4961979;28;20109;-32
2022/01/31 13:46:06;;;;;;;11.73;1.80;;;;;;;;;;4970798;28;20512;-33
2022/01/31 13:51:31;;;;;;;12.43;1.45;;;;;;;;;;4972536;28;20027;-34
2022/01/31 13:54:18;;;;;;;6.45;1.48;;;;;;;;;;4971242;28;20035;-32
2022/01/31 13:56:50;;;;;;;10.60;1.80;;;;;;;;;;4968091;28;20066;-33
2022/01/31 13:59:18;;;;;;;5.15;1.27;;;;;;;;;;4970601;28;20467;-32
2022/01/31 14:01:46;;;;;;;6.50;1.30;;;;;;;;;;4970943;28;20544;-33
2022/01/31 14:04:15;;;;;;;11.10;1.85;;;;;;;;;;4971998;28;20682;-33
2022/01/31 14:06:42;;;;;;;8.05;1.40;;;;;;;;;;4971698;28;20114;-32
2022/01/31 14:09:12;;;;;;;8.40;1.45;;;;;;;;;;4971272;28;20034;-35
2022/01/31 14:11:41;;;;;;;11.38;1.45;;;;;;;;;;4971199;28;20026;-32
2022/01/31 14:14:11;;;;;;;13.13;1.67;;;;;;;;;;4970690;28;20055;-34
2022/01/31 14:16:39;;;;;;;12.75;1.85;;;;;;;;;;4970240;28;20048;-33
2022/01/31 14:19:11;;;;;;;11.18;1.70;;;;;;;;;;4970644;28;20079;-34
2022/01/31 14:21:38;;;;;;;13.48;1.73;;;;;;;;;;4971529;28;20059;-33
2022/01/31 14:24:06;;;;;;;19.55;2.00;;;;;;;;;;4970723;28;20507;-32
2022/01/31 14:26:43;;;;;;;12.25;2.00;;;;;;;;;;4970051;28;20058;-32
2022/01/31 14:29:14;;;;;;;9.35;1.58;;;;;;;;;;4960113;28;20027;-32
2022/01/31 14:31:46;;;;;;;10.15;1.92;;;;;;;;;;4959821;28;20441;-32
2022/01/31 14:34:14;;;;;;;;;;;;;;;;;;4961299;28;20105;-32
2022/01/31 14:36:41;;;;;;;14.05;1.80;;;;;;;;;;4951881;29;19973;-32
2022/01/31 14:39:26;;;;;;;12.32;1.90;;;;;;;;;;4951122;29;20027;-37
2022/01/31 14:42:42;;;;;;;13.50;2.05;;;;;;;;;;4968488;28;20042;-35
2022/01/31 14:47:47;;;;;;;13.52;2.15;;;;;;;;;;4969897;28;20089;-36
2022/01/31 14:50:15;;;;;;;12.38;2.40;;;;;;;;;;4971075;28;20029;-35
2022/01/31 14:52:42;;;;;;;16.08;2.13;;;;;;;;;;4969971;28;20125;-34
2022/01/31 14:55:10;;;;;;;16.10;2.50;;;;;;;;;;4970457;28;20035;-36
2022/01/31 14:57:38;;;;;;;15.27;2.60;;;;;;;;;;4970072;28;20047;-35
2022/01/31 15:00:06;;;;;;;17.85;2.45;;;;;;;;;;4969732;28;20496;-34
2022/01/31 15:02:34;;;;;;;17.33;2.00;;;;;;;;;;4970118;28;20038;-35
2022/01/31 15:05:08;;;;;;;18.20;2.17;;;;;;;;;;4971047;28;20150;-36
2022/01/31 15:07:35;;;;;;;14.27;2.67;;;;;;;;;;4968559;28;20019;-36
2022/01/31 15:10:02;;;;;;;28.48;2.95;;;;;;;;;;4969460;28;20081;-35
2022/01/31 15:12:29;;;;;;;20.45;2.58;;;;;;;;;;4970546;28;20374;-35
2022/01/31 15:14:56;;;;;;;21.33;2.60;;;;;;;;;;4969133;28;20081;-35
2022/01/31 15:17:25;;;;;;;27.13;3.10;;;;;;;;;;4969907;28;20031;-36
2022/01/31 15:19:52;;;;;;;18.40;2.67;;;;;;;;;;4969163;28;20246;-36
2022/01/31 15:22:19;;;;;;;23.55;3.33;;;;;;;;;;4970011;28;20484;-31